createdAt,value
2022-10-12T00:01:14.185Z,17.23
2022-10-12T00:03:43.769Z,18.13
2022-10-12T00:06:11.343Z,17.98
2022-10-12T00:08:39.911Z,17.30
2022-10-12T00:11:15.130Z,16.83
2022-10-12T00:13:45.040Z,17.67
2022-10-12T00:16:19.000Z,19.20
2022-10-12T00:18:54.358Z,17.25
2022-10-12T00:21:24.723Z,18.48
2022-10-12T00:23:52.367Z,19.92
2022-10-12T00:26:23.139Z,19.25
2022-10-12T00:28:58.377Z,18.98
2022-10-12T00:31:29.151Z,17.40
2022-10-12T00:34:01.205Z,17.27
2022-10-12T00:36:34.471Z,17.48
2022-10-12T00:39:06.014Z,18.00
2022-10-12T00:41:35.637Z,17.52
2022-10-12T00:44:41.336Z,18.05
2022-10-12T00:47:19.834Z,18.58
2022-10-12T00:49:53.854Z,17.77
2022-10-12T00:52:23.119Z,17.95
2022-10-12T00:54:54.351Z,17.13
2022-10-12T00:57:22.722Z,17.42
2022-10-12T01:00:02.540Z,17.75
2022-10-12T01:02:34.275Z,16.85
2022-10-12T01:05:04.655Z,16.52
2022-10-12T01:07:31.839Z,16.23
2022-10-12T01:09:58.900Z,17.02
2022-10-12T01:12:27.479Z,15.48
2022-10-12T01:14:59.331Z,15.68
2022-10-12T01:17:29.637Z,16.60
2022-10-12T01:20:25.539Z,18.85
2022-10-12T01:23:15.557Z,18.92
2022-10-12T01:25:51.942Z,17.05
2022-10-12T01:28:53.573Z,17.77
2022-10-12T01:31:45.037Z,19.23
2022-10-12T01:34:23.885Z,17.92
2022-10-12T01:37:08.573Z,18.23
2022-10-12T01:39:45.831Z,18.13
2022-10-12T01:42:23.484Z,18.42
2022-10-12T01:44:51.102Z,18.25
2022-10-12T01:47:18.503Z,18.20
2022-10-12T01:49:47.749Z,18.45
2022-10-12T01:52:27.005Z,15.77
2022-10-12T01:55:26.834Z,17.20
2022-10-12T01:58:00.054Z,16.50
2022-10-12T02:00:27.363Z,14.93
2022-10-12T02:03:18.888Z,15.43
2022-10-12T02:05:56.482Z,16.50
2022-10-12T02:08:30.539Z,16.60
2022-10-12T02:11:11.009Z,19.23
2022-10-12T02:14:21.582Z,19.48
2022-10-12T02:16:55.742Z,18.02
2022-10-12T02:19:27.012Z,18.42
2022-10-12T02:22:00.962Z,16.88
2022-10-12T02:24:31.672Z,16.50
2022-10-12T02:27:00.852Z,16.90
2022-10-12T02:29:36.421Z,17.52
2022-10-12T02:32:09.387Z,18.00
2022-10-12T02:34:42.410Z,18.08
2022-10-12T02:37:31.684Z,18.35
2022-10-12T02:40:10.545Z,18.10
2022-10-12T02:43:08.853Z,17.63
2022-10-12T02:45:35.012Z,18.80
2022-10-12T02:48:03.308Z,20.33
2022-10-12T02:50:32.218Z,19.25
2022-10-12T02:52:59.880Z,19.15
2022-10-12T02:55:29.390Z,20.45
2022-10-12T02:57:59.225Z,19.85
2022-10-12T03:03:01.830Z,20.33
2022-10-12T03:05:30.598Z,20.23
2022-10-12T03:08:00.029Z,17.63
2022-10-12T03:10:27.219Z,16.55
2022-10-12T03:12:57.194Z,19.00
2022-10-12T03:15:26.750Z,18.17
2022-10-12T03:17:53.977Z,17.75
2022-10-12T03:20:21.379Z,15.18
2022-10-12T03:22:48.389Z,17.02
2022-10-12T03:25:15.839Z,19.63
2022-10-12T03:27:43.160Z,19.10
2022-10-12T03:30:15.260Z,19.00
2022-10-12T03:32:42.512Z,19.17
2022-10-12T03:35:09.991Z,25.95
2022-10-12T03:37:40.170Z,20.42
2022-10-12T03:40:12.949Z,17.80
2022-10-12T03:42:40.041Z,14.38
2022-10-12T03:45:07.628Z,16.77
2022-10-12T03:47:34.969Z,16.88
2022-10-12T03:50:05.067Z,16.13
2022-10-12T03:52:32.081Z,15.63
2022-10-12T03:54:59.460Z,17.35
2022-10-12T03:57:26.706Z,16.30
2022-10-12T03:59:56.249Z,15.90
2022-10-12T04:02:23.381Z,16.00
2022-10-12T04:04:50.898Z,15.18
2022-10-12T04:07:22.575Z,18.27
2022-10-12T04:09:52.150Z,17.38
2022-10-12T04:12:21.970Z,16.23
2022-10-12T04:14:48.994Z,14.25
2022-10-12T04:17:16.824Z,14.77
2022-10-12T04:19:46.602Z,15.90
2022-10-12T04:22:13.566Z,14.50
2022-10-12T04:24:40.716Z,14.98
2022-10-12T04:27:08.074Z,15.15
2022-10-12T04:29:35.196Z,15.68
2022-10-12T04:32:06.794Z,14.57
2022-10-12T04:34:39.762Z,13.82
2022-10-12T04:37:06.995Z,16.92
2022-10-12T04:39:34.234Z,18.13
2022-10-12T04:42:01.348Z,16.63
2022-10-12T04:44:32.214Z,15.13
2022-10-12T04:47:00.986Z,15.32
2022-10-12T04:49:33.243Z,31.70
2022-10-12T04:52:02.814Z,47.97
2022-10-12T04:54:31.268Z,38.25
2022-10-12T04:56:59.231Z,25.92
2022-10-12T04:59:26.457Z,20.88
2022-10-12T05:01:53.928Z,17.42
2022-10-12T05:04:21.807Z,16.13
2022-10-12T05:06:49.402Z,16.05
2022-10-12T05:09:17.267Z,14.68
2022-10-12T05:11:44.977Z,14.63
2022-10-12T05:14:12.285Z,15.02
2022-10-12T05:16:40.097Z,14.57
2022-10-12T05:19:09.297Z,13.90
2022-10-12T05:21:38.986Z,13.52
2022-10-12T05:24:07.027Z,14.32
2022-10-12T05:26:34.396Z,13.40
2022-10-12T05:29:01.547Z,13.13
2022-10-12T05:31:29.129Z,15.15
2022-10-12T05:33:56.242Z,13.82
2022-10-12T05:36:25.966Z,13.70
2022-10-12T05:38:53.024Z,14.77
2022-10-12T05:41:20.298Z,12.48
2022-10-12T05:43:49.571Z,44.53
2022-10-12T05:46:16.856Z,32.35
2022-10-12T05:48:48.737Z,16.88
2022-10-12T05:51:18.170Z,15.07
2022-10-12T05:53:45.538Z,17.48
2022-10-12T05:56:13.089Z,15.85
2022-10-12T05:58:40.251Z,14.82
2022-10-12T06:01:13.481Z,15.35
2022-10-12T06:03:40.807Z,14.20
2022-10-12T06:06:08.542Z,16.52
2022-10-12T06:08:35.832Z,18.33
2022-10-12T06:11:03.509Z,18.73
2022-10-12T06:13:30.687Z,15.85
2022-10-12T06:15:58.142Z,15.57
2022-10-12T06:18:27.563Z,16.13
2022-10-12T06:21:20.995Z,16.38
2022-10-12T06:23:42.419Z,15.77
2022-10-12T06:26:15.810Z,16.08
2022-10-12T06:28:42.859Z,14.73
2022-10-12T06:31:13.230Z,14.52
2022-10-12T06:33:40.343Z,14.55
2022-10-12T06:36:10.253Z,14.77
2022-10-12T06:38:37.590Z,16.33
2022-10-12T06:41:09.623Z,16.38
2022-10-12T06:43:36.677Z,17.20
2022-10-12T06:46:06.775Z,19.80
2022-10-12T06:48:36.247Z,18.58
2022-10-12T06:51:03.693Z,16.33
2022-10-12T06:53:30.951Z,17.25
2022-10-12T06:56:05.295Z,17.70
2022-10-12T06:58:35.499Z,16.85
2022-10-12T07:01:07.720Z,17.38
2022-10-12T07:03:34.995Z,17.45
2022-10-12T07:06:13.282Z,18.58
2022-10-12T07:08:41.775Z,17.65
2022-10-12T07:11:11.345Z,17.00
2022-10-12T07:13:38.735Z,21.00
2022-10-12T07:16:06.478Z,19.92
2022-10-12T07:18:36.627Z,19.05
2022-10-12T07:21:03.961Z,20.00
2022-10-12T07:23:32.695Z,20.30
2022-10-12T07:26:05.063Z,19.77
2022-10-12T07:28:34.560Z,20.88
2022-10-12T07:31:03.801Z,24.25
2022-10-12T07:33:35.547Z,25.13
2022-10-12T07:36:14.878Z,19.77
2022-10-12T07:38:43.341Z,20.17
2022-10-12T07:41:11.527Z,18.02
2022-10-12T07:43:40.799Z,19.42
2022-10-12T07:46:11.189Z,16.25
2022-10-12T07:48:38.295Z,17.20
2022-10-12T07:51:07.030Z,17.13
2022-10-12T07:53:35.193Z,16.50
2022-10-12T07:56:07.233Z,14.07
2022-10-12T07:58:37.004Z,12.88
2022-10-12T08:01:05.953Z,11.40
2022-10-12T08:03:33.043Z,11.63
2022-10-12T08:06:08.866Z,10.43
2022-10-12T08:08:36.429Z,10.18
2022-10-12T08:11:04.893Z,8.77
2022-10-12T08:13:37.489Z,7.68
2022-10-12T08:16:06.476Z,7.38
2022-10-12T08:18:36.142Z,7.28
2022-10-12T08:21:10.758Z,7.43
2022-10-12T08:23:38.629Z,4.95
2022-10-12T08:26:08.582Z,6.78
2022-10-12T08:28:36.077Z,5.57
2022-10-12T08:31:14.229Z,4.30
2022-10-12T08:33:41.470Z,4.47
2022-10-12T08:36:12.098Z,3.83
2022-10-12T08:38:39.223Z,3.80
2022-10-12T08:41:19.151Z,3.45
2022-10-12T08:43:52.171Z,3.72
2022-10-12T08:46:25.432Z,3.08
2022-10-12T08:49:12.580Z,3.10
2022-10-12T08:52:00.142Z,3.15
2022-10-12T08:54:35.357Z,2.70
2022-10-12T08:57:02.980Z,2.67
2022-10-12T08:59:33.069Z,3.38
2022-10-12T09:02:38.290Z,3.10
2022-10-12T09:05:22.436Z,2.70
2022-10-12T09:07:59.835Z,2.58
2022-10-12T09:10:38.925Z,2.45
2022-10-12T09:13:29.027Z,2.75
2022-10-12T09:16:27.252Z,2.92
2022-10-12T09:19:03.984Z,2.50
2022-10-12T09:21:35.123Z,2.55
2022-10-12T09:24:04.650Z,2.65
2022-10-12T09:26:38.245Z,2.92
2022-10-12T09:29:26.405Z,2.50
2022-10-12T09:31:56.630Z,3.17
2022-10-12T09:34:26.279Z,2.00
2022-10-12T09:36:53.520Z,2.30
2022-10-12T09:39:25.682Z,2.20
2022-10-12T09:41:59.728Z,2.05
2022-10-12T09:44:37.762Z,2.60
2022-10-12T09:47:22.103Z,2.65
2022-10-12T09:49:53.881Z,2.60
2022-10-12T09:52:37.545Z,2.28
2022-10-12T09:55:17.107Z,2.25
2022-10-12T09:57:54.309Z,2.63
2022-10-12T10:00:30.422Z,2.95
2022-10-12T10:02:58.499Z,2.63
2022-10-12T10:05:38.374Z,3.28
2022-10-12T10:08:14.708Z,2.83
2022-10-12T10:11:13.633Z,3.55
2022-10-12T10:13:49.046Z,3.10
2022-10-12T10:16:19.816Z,2.50
2022-10-12T10:19:16.348Z,2.78
2022-10-12T10:21:43.620Z,3.05
2022-10-12T10:24:25.928Z,2.65
2022-10-12T10:27:02.464Z,3.85
2022-10-12T10:29:34.912Z,2.97
2022-10-12T10:32:22.123Z,3.45
2022-10-12T10:34:59.957Z,3.13
2022-10-12T10:37:30.167Z,2.88
2022-10-12T10:39:57.951Z,3.83
2022-10-12T10:42:30.636Z,3.40
2022-10-12T10:45:01.958Z,2.92
2022-10-12T10:47:34.167Z,2.83
2022-10-12T10:50:03.158Z,3.20
2022-10-12T10:52:32.078Z,3.17
2022-10-12T10:55:11.348Z,3.35
2022-10-12T10:57:44.418Z,3.25
2022-10-12T11:03:29.483Z,3.30
2022-10-12T11:06:18.689Z,3.65
2022-10-12T11:08:48.296Z,3.40
2022-10-12T11:11:28.583Z,3.10
2022-10-12T11:14:02.815Z,2.78
2022-10-12T11:16:35.992Z,2.67
2022-10-12T11:19:17.280Z,3.22
2022-10-12T11:21:56.585Z,2.40
2022-10-12T11:24:27.139Z,2.58
2022-10-12T11:27:02.960Z,2.63
2022-10-12T11:29:35.742Z,2.33
2022-10-12T11:32:44.980Z,2.22
2022-10-12T11:35:26.480Z,2.53
2022-10-12T11:38:03.456Z,2.25
2022-10-12T11:43:47.982Z,2.67
2022-10-12T11:46:19.902Z,2.60
2022-10-12T11:48:55.961Z,2.40
2022-10-12T11:51:23.469Z,2.60
2022-10-12T11:54:02.637Z,2.28
2022-10-12T11:56:50.551Z,2.92
2022-10-12T11:59:36.874Z,3.72
2022-10-12T12:02:13.299Z,2.67
2022-10-12T12:04:44.494Z,2.83
2022-10-12T12:07:50.194Z,2.60
2022-10-12T12:10:29.337Z,2.47
2022-10-12T12:13:11.454Z,2.45
2022-10-12T12:15:43.881Z,3.35
2022-10-12T12:18:13.945Z,2.47
2022-10-12T12:20:44.308Z,3.05
2022-10-12T12:23:28.392Z,2.65
2022-10-12T12:26:15.708Z,3.05
2022-10-12T12:28:47.785Z,2.80
2022-10-12T12:31:33.205Z,3.20
2022-10-12T12:34:17.269Z,3.10
2022-10-12T12:36:48.838Z,2.70
2022-10-12T12:39:35.566Z,2.92
2022-10-12T12:42:05.238Z,2.88
2022-10-12T12:44:36.030Z,2.67
2022-10-12T12:47:08.460Z,3.00
2022-10-12T12:49:42.755Z,2.75
2022-10-12T12:52:27.017Z,2.65
2022-10-12T12:55:21.928Z,2.90
2022-10-12T12:58:10.184Z,2.53
2022-10-12T13:01:24.504Z,2.63
2022-10-12T13:04:32.864Z,2.60
2022-10-12T13:07:27.853Z,2.92
2022-10-12T13:10:28.263Z,3.05
2022-10-12T13:13:04.424Z,3.30
2022-10-12T13:15:44.690Z,3.28
2022-10-12T13:18:47.055Z,3.45
2022-10-12T13:21:26.001Z,2.60
2022-10-12T13:24:15.252Z,2.28
2022-10-12T13:26:46.404Z,2.17
2022-10-12T13:29:35.096Z,3.63
2022-10-12T13:32:10.854Z,3.00
2022-10-12T13:34:49.383Z,2.80
2022-10-12T13:37:18.707Z,2.38
2022-10-12T13:39:46.030Z,3.00
2022-10-12T13:42:24.905Z,4.40
2022-10-12T13:44:54.676Z,3.13
2022-10-12T13:47:22.068Z,2.75
2022-10-12T13:49:49.241Z,3.58
2022-10-12T13:52:19.562Z,4.13
2022-10-12T13:54:50.054Z,3.80
2022-10-12T13:57:35.272Z,2.63
2022-10-12T14:00:08.387Z,4.40
2022-10-12T14:02:36.329Z,3.50
2022-10-12T14:05:17.853Z,3.30
2022-10-12T14:07:46.352Z,3.35
2022-10-12T14:10:26.741Z,2.80
2022-10-12T14:12:55.834Z,2.80
2022-10-12T14:15:26.031Z,3.00
2022-10-12T14:17:53.319Z,2.92
2022-10-12T14:20:36.641Z,3.15
2022-10-12T14:23:11.648Z,4.25
2022-10-12T14:25:49.958Z,2.70
2022-10-12T14:28:43.610Z,3.35
2022-10-12T14:31:10.836Z,2.53
2022-10-12T14:33:38.161Z,2.28
2022-10-12T14:36:20.806Z,2.95
2022-10-12T14:38:49.578Z,2.80
2022-10-12T14:41:28.770Z,2.78
2022-10-12T14:44:10.886Z,2.83
2022-10-12T14:46:49.618Z,3.13
2022-10-12T14:49:25.103Z,3.53
2022-10-12T14:51:54.900Z,2.30
2022-10-12T14:54:24.906Z,2.80
2022-10-12T14:56:56.804Z,3.22
2022-10-12T14:59:26.375Z,2.90
2022-10-12T15:01:53.362Z,3.08
2022-10-12T15:04:23.554Z,3.75
2022-10-12T15:06:52.980Z,3.30
2022-10-12T15:09:20.238Z,3.15
2022-10-12T15:11:47.447Z,3.30
2022-10-12T15:14:14.882Z,2.83
2022-10-12T15:16:41.928Z,3.95
2022-10-12T15:19:09.129Z,3.50
2022-10-12T15:21:36.524Z,3.08
2022-10-12T15:24:12.557Z,3.22
2022-10-12T15:26:42.327Z,2.92
2022-10-12T15:29:09.911Z,2.92
2022-10-12T15:31:37.063Z,3.83
2022-10-12T15:34:06.124Z,3.35
2022-10-12T15:36:33.322Z,3.67
2022-10-12T15:39:00.827Z,3.60
2022-10-12T15:41:28.025Z,3.70
2022-10-12T15:43:55.271Z,3.25
2022-10-12T15:46:22.470Z,3.70
2022-10-12T15:48:49.862Z,2.95
2022-10-12T15:51:22.689Z,3.00
2022-10-12T15:53:54.053Z,3.15
2022-10-12T15:56:24.658Z,5.45
2022-10-12T15:58:52.758Z,5.05
2022-10-12T16:01:20.699Z,4.10
2022-10-12T16:03:49.538Z,3.70
2022-10-12T16:06:16.829Z,4.30
2022-10-12T16:08:44.234Z,4.63
2022-10-12T16:11:16.774Z,4.38
2022-10-12T16:13:52.422Z,4.50
2022-10-12T16:16:25.191Z,3.75
2022-10-12T16:18:53.311Z,4.75
2022-10-12T16:21:20.357Z,5.05
2022-10-12T16:23:47.348Z,5.38
2022-10-12T16:26:15.727Z,5.25
2022-10-12T16:28:42.993Z,5.60
2022-10-12T16:31:12.676Z,6.72
2022-10-12T16:33:45.776Z,12.32
2022-10-12T16:36:15.553Z,10.32
2022-10-12T16:38:43.581Z,11.05
2022-10-12T16:41:12.877Z,12.82
2022-10-12T16:43:40.402Z,14.65
2022-10-12T16:46:10.774Z,14.50
2022-10-12T16:48:37.954Z,15.52
2022-10-12T16:51:13.027Z,13.68
2022-10-12T16:53:42.366Z,12.30
2022-10-12T16:56:10.216Z,12.80
2022-10-12T16:58:37.431Z,13.70
2022-10-12T17:01:14.186Z,14.02
2022-10-12T17:03:41.536Z,14.18
2022-10-12T17:06:09.597Z,16.65
2022-10-12T17:08:39.152Z,17.83
2022-10-12T17:11:09.665Z,17.60
2022-10-12T17:13:37.940Z,14.93
2022-10-12T17:16:05.932Z,13.13
2022-10-12T17:18:33.096Z,16.92
2022-10-12T17:21:02.627Z,18.90
2022-10-12T17:23:29.728Z,15.50
2022-10-12T17:26:00.514Z,19.17
2022-10-12T17:28:27.617Z,19.85
2022-10-12T17:30:57.125Z,17.23
2022-10-12T17:33:24.320Z,15.93
2022-10-12T17:35:51.514Z,19.60
2022-10-12T17:38:18.565Z,19.35
2022-10-12T17:40:48.774Z,21.40
2022-10-12T17:43:18.399Z,22.90
2022-10-12T17:45:45.850Z,24.58
2022-10-12T17:48:13.153Z,24.20
2022-10-12T17:50:40.632Z,25.90
2022-10-12T17:53:08.038Z,25.73
2022-10-12T17:55:48.103Z,36.80
2022-10-12T17:58:15.835Z,46.15
2022-10-12T18:00:43.305Z,39.63
2022-10-12T18:03:10.417Z,35.50
2022-10-12T18:05:39.890Z,35.95
2022-10-12T18:08:09.447Z,39.13
2022-10-12T18:10:42.573Z,41.65
2022-10-12T18:13:10.174Z,36.97
2022-10-12T18:15:44.004Z,30.77
2022-10-12T18:18:17.189Z,31.67
2022-10-12T18:20:44.259Z,39.15
2022-10-12T18:23:11.549Z,38.17
2022-10-12T18:25:40.114Z,37.83
2022-10-12T18:28:08.584Z,35.72
2022-10-12T18:30:36.790Z,37.35
2022-10-12T18:33:04.653Z,37.88
2022-10-12T18:35:34.333Z,35.95
2022-10-12T18:38:01.327Z,37.22
2022-10-12T18:40:28.729Z,36.42
2022-10-12T18:42:56.230Z,34.10
2022-10-12T18:45:25.769Z,39.67
2022-10-12T18:47:52.962Z,40.72
2022-10-12T18:50:20.796Z,35.67
2022-10-12T18:52:50.017Z,39.97
2022-10-12T18:55:17.520Z,41.97
2022-10-12T18:57:44.598Z,43.97
2022-10-12T19:00:12.140Z,48.03
2022-10-12T19:02:39.364Z,46.47
2022-10-12T19:05:06.731Z,45.97
2022-10-12T19:07:35.166Z,46.47
2022-10-12T19:10:04.668Z,51.97
2022-10-12T19:12:31.857Z,49.10
2022-10-12T19:14:59.230Z,45.75
2022-10-12T19:17:30.064Z,49.45
2022-10-12T19:19:57.667Z,46.17
2022-10-12T19:22:27.470Z,53.55
2022-10-12T19:24:55.142Z,47.28
2022-10-12T19:27:24.811Z,46.97
2022-10-12T19:29:56.632Z,51.38
2022-10-12T19:32:26.310Z,50.63
2022-10-12T19:34:56.409Z,50.50
2022-10-12T19:37:23.457Z,55.15
2022-10-12T19:39:50.951Z,51.90
2022-10-12T19:42:20.893Z,54.10
2022-10-12T19:44:48.397Z,51.08
2022-10-12T19:47:15.633Z,50.03
2022-10-12T19:49:45.280Z,51.30
2022-10-12T19:52:12.692Z,49.20
2022-10-12T19:54:40.207Z,46.13
2022-10-12T19:57:09.847Z,47.70
2022-10-12T19:59:37.134Z,44.67
2022-10-12T20:02:04.351Z,47.08
2022-10-12T20:04:31.494Z,47.58
2022-10-12T20:06:58.789Z,46.63
2022-10-12T20:09:26.240Z,43.60
2022-10-12T20:11:57.268Z,45.13
2022-10-12T20:14:24.312Z,40.63
2022-10-12T20:16:51.618Z,44.28
2022-10-12T20:19:19.141Z,44.08
2022-10-12T20:21:46.213Z,46.58
2022-10-12T20:24:13.413Z,47.63
2022-10-12T20:26:43.657Z,49.22
2022-10-12T20:29:10.674Z,45.75
2022-10-12T20:31:40.632Z,50.17
2022-10-12T20:34:07.768Z,45.60
2022-10-12T20:36:39.524Z,47.42
2022-10-12T20:39:06.971Z,46.92
2022-10-12T20:41:36.508Z,46.05
2022-10-12T20:44:06.647Z,44.22
2022-10-12T20:46:33.961Z,43.95
2022-10-12T20:49:02.752Z,43.55
2022-10-12T20:51:33.040Z,43.08
2022-10-12T20:54:00.859Z,39.30
2022-10-12T20:56:32.944Z,38.00
2022-10-12T20:59:00.945Z,38.38
2022-10-12T21:01:28.249Z,40.13
2022-10-12T21:03:55.490Z,41.55
2022-10-12T21:06:22.890Z,46.45
2022-10-12T21:08:55.016Z,56.17
2022-10-12T21:11:23.181Z,58.30
2022-10-12T21:13:51.137Z,60.10
2022-10-12T21:16:19.161Z,61.67
2022-10-12T21:18:46.414Z,62.60
2022-10-12T21:21:19.036Z,63.78
2022-10-12T21:23:57.030Z,59.78
2022-10-12T21:26:30.592Z,44.55
2022-10-12T21:29:00.908Z,38.72
2022-10-12T21:31:32.210Z,41.60
2022-10-12T21:34:05.287Z,44.53
2022-10-12T21:36:36.808Z,43.40
2022-10-12T21:39:11.112Z,40.08
2022-10-12T21:41:39.237Z,37.22
2022-10-12T21:44:07.097Z,35.20
2022-10-12T21:46:35.432Z,36.50
2022-10-12T21:49:08.171Z,37.50
2022-10-12T21:51:36.803Z,37.08
2022-10-12T21:54:05.571Z,37.63
2022-10-12T21:56:34.312Z,39.15
2022-10-12T21:59:03.210Z,39.20
2022-10-12T22:01:40.666Z,37.38
2022-10-12T22:04:12.602Z,35.25
2022-10-12T22:06:40.546Z,36.20
2022-10-12T22:09:12.426Z,33.83
2022-10-12T22:11:39.707Z,36.25
2022-10-12T22:14:09.929Z,36.58
2022-10-12T22:16:37.545Z,36.88
2022-10-12T22:19:08.179Z,37.53
2022-10-12T22:21:36.261Z,38.97
2022-10-12T22:24:07.407Z,38.50
2022-10-12T22:26:34.638Z,38.55
2022-10-12T22:29:03.584Z,34.97
2022-10-12T22:31:33.448Z,35.60
2022-10-12T22:34:00.979Z,29.55
2022-10-12T22:36:28.661Z,34.38
2022-10-12T22:38:58.222Z,34.75
2022-10-12T22:41:25.734Z,36.10
2022-10-12T22:43:55.093Z,35.75
2022-10-12T22:46:25.783Z,36.15
2022-10-12T22:48:54.409Z,37.47
2022-10-12T22:51:33.305Z,35.22
2022-10-12T22:54:01.627Z,33.05
2022-10-12T22:56:29.833Z,33.53
2022-10-12T22:58:59.133Z,32.63
2022-10-12T23:01:27.497Z,32.05
2022-10-12T23:03:55.449Z,30.23
2022-10-12T23:06:25.364Z,31.05
2022-10-12T23:08:52.891Z,28.08
2022-10-12T23:11:22.791Z,29.25
2022-10-12T23:13:49.855Z,29.20
2022-10-12T23:16:25.797Z,25.45
2022-10-12T23:19:02.150Z,28.10
2022-10-12T23:21:33.398Z,28.98
2022-10-12T23:24:04.013Z,29.10
2022-10-12T23:26:31.385Z,27.88
2022-10-12T23:28:58.919Z,26.92
2022-10-12T23:31:30.803Z,27.15
2022-10-12T23:34:02.426Z,26.92
2022-10-12T23:36:31.537Z,24.15
2022-10-12T23:39:02.347Z,27.42
2022-10-12T23:41:31.899Z,23.77
2022-10-12T23:43:59.142Z,23.00
2022-10-12T23:46:28.477Z,21.85
2022-10-12T23:48:55.623Z,22.25
2022-10-12T23:51:23.045Z,25.40
2022-10-12T23:53:50.569Z,22.25
2022-10-12T23:56:17.902Z,21.08
2022-10-12T23:58:45.172Z,22.52
